createdAt,value
2023-01-03T00:01:18.840Z,1.50
2023-01-03T00:03:47.035Z,1.80
2023-01-03T00:06:18.960Z,1.50
2023-01-03T00:08:47.417Z,1.63
2023-01-03T00:11:16.315Z,1.70
2023-01-03T00:13:43.670Z,1.90
2023-01-03T00:16:18.631Z,1.90
2023-01-03T00:18:47.023Z,2.13
2023-01-03T00:21:15.167Z,1.77
2023-01-03T00:23:44.350Z,2.03
2023-01-03T00:26:12.740Z,1.90
2023-01-03T00:28:41.082Z,2.10
2023-01-03T00:31:09.428Z,1.83
2023-01-03T00:33:40.531Z,2.07
2023-01-03T00:36:10.620Z,1.90
2023-01-03T00:38:39.134Z,2.10
2023-01-03T00:41:07.934Z,2.20
2023-01-03T00:43:36.303Z,1.97
2023-01-03T00:46:05.304Z,2.17
2023-01-03T00:48:33.572Z,2.20
2023-01-03T00:51:08.117Z,2.27
2023-01-03T00:53:37.278Z,2.03
2023-01-03T00:56:05.933Z,2.40
2023-01-03T00:58:34.194Z,2.20
2023-01-03T01:01:07.606Z,2.30
2023-01-03T01:03:36.162Z,2.30
2023-01-03T01:06:14.674Z,2.17
2023-01-03T01:08:42.884Z,2.17
2023-01-03T01:11:11.451Z,2.10
2023-01-03T01:13:39.630Z,2.23
2023-01-03T01:16:10.362Z,2.20
2023-01-03T01:18:38.874Z,2.10
2023-01-03T01:21:08.098Z,2.50
2023-01-03T01:23:39.375Z,2.40
2023-01-03T01:26:08.747Z,2.20
2023-01-03T01:28:36.986Z,2.50
2023-01-03T01:31:06.128Z,2.40
2023-01-03T01:33:35.647Z,2.67
2023-01-03T01:36:07.372Z,2.30
2023-01-03T01:38:36.916Z,2.20
2023-01-03T01:41:05.138Z,2.77
2023-01-03T01:44:02.523Z,2.70
2023-01-03T01:46:32.810Z,2.60
2023-01-03T01:49:03.588Z,2.33
2023-01-03T01:51:34.329Z,2.50
2023-01-03T01:54:05.507Z,2.40
2023-01-03T01:56:37.237Z,2.30
2023-01-03T01:59:05.573Z,2.87
2023-01-03T02:01:33.807Z,2.37
2023-01-03T02:04:05.357Z,2.80
2023-01-03T02:06:34.097Z,2.80
2023-01-03T02:09:03.546Z,2.50
2023-01-03T02:11:38.680Z,2.93
2023-01-03T02:14:18.285Z,2.80
2023-01-03T02:17:01.501Z,2.47
2023-01-03T02:20:03.669Z,2.70
2023-01-03T02:23:31.606Z,2.90
2023-01-03T02:26:34.403Z,2.40
2023-01-03T02:29:41.131Z,2.70
2023-01-03T02:32:13.713Z,2.80
2023-01-03T02:34:47.082Z,2.40
2023-01-03T02:37:20.112Z,2.90
2023-01-03T02:39:51.870Z,2.70
2023-01-03T02:42:42.718Z,2.80
2023-01-03T02:45:14.075Z,2.60
2023-01-03T02:47:47.030Z,2.73
2023-01-03T02:50:15.282Z,2.67
2023-01-03T02:52:43.461Z,2.50
2023-01-03T02:55:15.298Z,2.87
2023-01-03T02:57:46.899Z,2.73
2023-01-03T03:00:16.946Z,2.60
2023-01-03T03:02:51.815Z,2.77
2023-01-03T03:05:24.663Z,2.50
2023-01-03T03:07:52.974Z,2.70
2023-01-03T03:10:38.821Z,2.30
2023-01-03T03:13:25.952Z,2.60
2023-01-03T03:15:58.692Z,2.60
2023-01-03T03:18:32.423Z,2.80
2023-01-03T03:21:18.312Z,2.63
2023-01-03T03:24:04.313Z,2.60
2023-01-03T03:26:35.755Z,2.50
2023-01-03T03:29:08.672Z,2.43
2023-01-03T03:31:39.123Z,2.70
2023-01-03T03:34:10.448Z,2.80
2023-01-03T03:36:44.982Z,2.73
2023-01-03T03:39:28.137Z,2.40
2023-01-03T03:42:16.128Z,2.70
2023-01-03T03:45:03.045Z,2.30
2023-01-03T03:47:38.544Z,2.30
2023-01-03T03:50:11.190Z,2.27
2023-01-03T03:52:39.360Z,2.50
2023-01-03T03:55:10.383Z,2.40
2023-01-03T03:57:41.120Z,2.27
2023-01-03T04:00:12.980Z,2.27
2023-01-03T04:02:42.741Z,2.30
2023-01-03T04:05:12.583Z,2.30
2023-01-03T04:07:41.101Z,2.47
2023-01-03T04:10:10.284Z,2.30
2023-01-03T04:12:38.400Z,2.47
2023-01-03T04:15:08.951Z,2.43
2023-01-03T04:17:37.074Z,2.23
2023-01-03T04:20:05.913Z,2.03
2023-01-03T04:22:35.392Z,2.50
2023-01-03T04:25:03.739Z,1.93
2023-01-03T04:27:31.885Z,2.07
2023-01-03T04:30:00.060Z,2.00
2023-01-03T04:32:28.213Z,2.27
2023-01-03T04:34:56.433Z,2.50
2023-01-03T04:37:24.592Z,2.23
2023-01-03T04:39:54.120Z,2.40
2023-01-03T04:42:39.929Z,2.23
2023-01-03T04:45:09.810Z,2.30
2023-01-03T04:47:37.915Z,2.17
2023-01-03T04:50:07.907Z,2.27
2023-01-03T04:52:36.037Z,2.30
2023-01-03T04:55:06.518Z,2.67
2023-01-03T04:57:34.653Z,2.30
2023-01-03T05:00:02.863Z,2.40
2023-01-03T05:02:31.020Z,2.53
2023-01-03T05:04:59.205Z,2.50
2023-01-03T05:07:28.804Z,2.40
2023-01-03T05:09:56.902Z,2.23
2023-01-03T05:12:27.064Z,2.07
2023-01-03T05:14:55.635Z,2.43
2023-01-03T05:17:23.772Z,2.33
2023-01-03T05:20:09.446Z,1.97
2023-01-03T05:22:55.374Z,2.30
2023-01-03T05:25:41.443Z,2.20
2023-01-03T05:28:16.944Z,2.07
2023-01-03T05:30:45.599Z,2.40
2023-01-03T05:33:13.734Z,2.50
2023-01-03T05:35:42.135Z,2.10
2023-01-03T05:38:10.252Z,2.23
2023-01-03T05:40:41.417Z,2.27
2023-01-03T05:43:11.260Z,2.33
2023-01-03T05:45:39.633Z,2.23
2023-01-03T05:48:08.678Z,2.37
2023-01-03T05:50:36.966Z,2.43
2023-01-03T05:53:05.186Z,2.20
2023-01-03T05:55:33.387Z,2.27
2023-01-03T05:58:01.601Z,2.43
2023-01-03T06:00:31.340Z,2.57
2023-01-03T06:02:59.565Z,2.17
2023-01-03T06:05:27.838Z,2.33
2023-01-03T06:07:56.018Z,2.60
2023-01-03T06:10:24.171Z,2.40
2023-01-03T06:12:52.524Z,2.17
2023-01-03T06:15:21.270Z,2.60
2023-01-03T06:17:57.864Z,2.30
2023-01-03T06:20:27.225Z,2.30
2023-01-03T06:22:55.549Z,2.80
2023-01-03T06:25:24.031Z,2.30
2023-01-03T06:27:52.150Z,2.30
2023-01-03T06:30:20.926Z,2.20
2023-01-03T06:32:50.491Z,2.50
2023-01-03T06:35:18.651Z,2.50
2023-01-03T06:37:46.886Z,2.40
2023-01-03T06:40:15.132Z,2.27
2023-01-03T06:42:43.775Z,2.60
2023-01-03T06:45:31.534Z,2.60
2023-01-03T06:48:22.863Z,2.43
2023-01-03T06:51:08.828Z,2.60
2023-01-03T06:53:38.369Z,2.67
2023-01-03T06:56:07.248Z,2.77
2023-01-03T06:58:35.647Z,2.23
2023-01-03T07:01:04.590Z,2.47
2023-01-03T07:03:34.363Z,2.50
2023-01-03T07:06:02.588Z,2.50
2023-01-03T07:08:30.846Z,2.20
2023-01-03T07:10:58.929Z,2.40
2023-01-03T07:13:44.784Z,2.10
2023-01-03T07:16:15.203Z,2.60
2023-01-03T07:18:50.685Z,2.43
2023-01-03T07:21:23.386Z,2.90
2023-01-03T07:23:53.350Z,2.67
2023-01-03T07:26:21.489Z,2.70
2023-01-03T07:28:49.564Z,2.50
2023-01-03T07:31:18.271Z,2.87
2023-01-03T07:33:48.440Z,2.57
2023-01-03T07:36:17.064Z,2.70
2023-01-03T07:38:45.957Z,2.63
2023-01-03T07:41:14.783Z,2.47
2023-01-03T07:43:43.982Z,2.80
2023-01-03T07:46:14.935Z,2.43
2023-01-03T07:48:43.337Z,2.30
2023-01-03T07:51:14.071Z,2.60
2023-01-03T07:53:42.335Z,3.07
2023-01-03T07:56:13.374Z,2.67
2023-01-03T07:58:42.451Z,2.63
2023-01-03T08:01:12.061Z,2.63
2023-01-03T08:03:40.669Z,2.83
2023-01-03T08:06:10.332Z,2.70
2023-01-03T08:08:39.828Z,2.23
2023-01-03T08:11:25.987Z,2.60
2023-01-03T08:13:54.084Z,2.50
2023-01-03T08:16:22.239Z,3.00
2023-01-03T08:18:50.719Z,2.77
2023-01-03T08:21:18.807Z,2.50
2023-01-03T08:23:49.048Z,2.57
2023-01-03T08:26:17.889Z,2.27
2023-01-03T08:28:46.210Z,2.33
2023-01-03T08:31:17.508Z,2.50
2023-01-03T08:33:48.277Z,2.40
2023-01-03T08:36:16.428Z,2.17
2023-01-03T08:38:46.828Z,2.23
2023-01-03T08:41:17.474Z,2.80
2023-01-03T08:43:45.710Z,3.13
2023-01-03T08:46:14.193Z,3.30
2023-01-03T08:48:42.559Z,3.50
2023-01-03T08:51:10.768Z,3.10
2023-01-03T08:53:38.999Z,2.90
2023-01-03T08:56:08.649Z,3.33
2023-01-03T08:58:39.171Z,3.03
2023-01-03T09:01:08.330Z,3.03
2023-01-03T09:03:36.812Z,2.93
2023-01-03T09:06:05.628Z,2.50
2023-01-03T09:08:34.159Z,2.70
2023-01-03T09:11:06.248Z,2.83
2023-01-03T09:13:34.451Z,2.73
2023-01-03T09:16:05.041Z,2.60
2023-01-03T09:18:33.824Z,2.73
2023-01-03T09:21:03.096Z,4.00
2023-01-03T09:23:31.281Z,3.70
2023-01-03T09:25:59.529Z,3.30
2023-01-03T09:28:27.950Z,3.17
2023-01-03T09:30:56.196Z,2.83
2023-01-03T09:33:25.914Z,2.93
2023-01-03T09:35:54.507Z,2.90
2023-01-03T09:38:22.721Z,2.60
2023-01-03T09:40:59.679Z,2.70
2023-01-03T09:43:36.822Z,2.93
2023-01-03T09:46:06.493Z,2.53
2023-01-03T09:48:37.112Z,2.63
2023-01-03T09:51:30.162Z,2.77
2023-01-03T09:54:16.316Z,2.90
2023-01-03T09:57:02.238Z,2.63
2023-01-03T09:59:48.092Z,3.00
2023-01-03T10:02:48.902Z,2.60
2023-01-03T10:05:38.920Z,2.47
2023-01-03T10:08:17.101Z,2.40
2023-01-03T10:10:49.641Z,2.80
2023-01-03T10:13:24.498Z,2.90
2023-01-03T10:15:59.162Z,2.43
2023-01-03T10:18:43.830Z,2.70
2023-01-03T10:21:17.431Z,2.50
2023-01-03T10:23:45.588Z,2.40
2023-01-03T10:26:13.781Z,2.50
2023-01-03T10:28:43.856Z,2.67
2023-01-03T10:31:26.817Z,2.30
2023-01-03T10:33:55.067Z,2.47
2023-01-03T10:36:24.595Z,2.50
2023-01-03T10:39:05.045Z,2.57
2023-01-03T10:41:37.952Z,2.20
2023-01-03T10:44:06.391Z,2.43
2023-01-03T10:46:35.653Z,2.47
2023-01-03T10:49:31.618Z,2.70
2023-01-03T10:52:03.788Z,2.77
2023-01-03T10:54:46.631Z,2.30
2023-01-03T10:57:41.551Z,2.23
2023-01-03T11:00:28.951Z,2.27
2023-01-03T11:03:03.670Z,2.40
2023-01-03T11:05:31.987Z,2.50
2023-01-03T11:08:04.476Z,2.17
2023-01-03T11:10:35.815Z,2.53
2023-01-03T11:13:10.097Z,2.07
2023-01-03T11:15:39.514Z,2.40
2023-01-03T11:18:17.586Z,2.37
2023-01-03T11:20:50.029Z,2.40
2023-01-03T11:23:26.026Z,2.53
2023-01-03T11:25:58.289Z,2.10
2023-01-03T11:28:55.293Z,2.47
2023-01-03T11:31:35.169Z,2.60
2023-01-03T11:34:14.997Z,2.20
2023-01-03T11:36:48.915Z,2.20
2023-01-03T11:39:35.378Z,2.17
2023-01-03T11:42:22.717Z,1.93
2023-01-03T11:45:36.202Z,1.93
2023-01-03T11:48:18.269Z,1.90
2023-01-03T11:50:51.459Z,2.10
2023-01-03T11:53:33.774Z,2.23
2023-01-03T11:56:14.828Z,2.57
2023-01-03T11:59:08.064Z,2.63
2023-01-03T12:02:10.541Z,2.43
2023-01-03T12:04:43.739Z,2.80
2023-01-03T12:07:47.063Z,2.77
2023-01-03T12:10:10.492Z,2.60
2023-01-03T12:12:59.487Z,2.60
2023-01-03T12:15:30.089Z,2.40
2023-01-03T12:18:00.687Z,2.50
2023-01-03T12:20:32.145Z,2.33
2023-01-03T12:23:04.296Z,2.60
2023-01-03T12:25:33.431Z,2.70
2023-01-03T12:28:06.707Z,2.77
2023-01-03T12:30:39.815Z,2.53
2023-01-03T12:33:17.986Z,2.70
2023-01-03T12:35:49.435Z,2.10
2023-01-03T12:38:18.100Z,2.90
2023-01-03T12:40:50.197Z,2.40
2023-01-03T12:43:25.707Z,2.20
2023-01-03T12:45:57.616Z,2.40
2023-01-03T12:48:43.546Z,2.30
2023-01-03T12:51:19.547Z,2.60
2023-01-03T12:53:50.052Z,2.20
2023-01-03T12:57:09.617Z,2.30
2023-01-03T13:00:02.334Z,2.40
2023-01-03T13:02:39.864Z,2.27
2023-01-03T13:05:16.256Z,2.50
2023-01-03T13:07:48.996Z,4.13
2023-01-03T13:10:18.841Z,3.93
2023-01-03T13:12:51.167Z,2.40
2023-01-03T13:15:35.792Z,2.47
2023-01-03T13:18:32.525Z,2.47
2023-01-03T13:21:01.105Z,2.20
2023-01-03T13:23:36.827Z,2.10
2023-01-03T13:26:25.425Z,2.20
2023-01-03T13:28:54.192Z,2.40
2023-01-03T13:32:03.788Z,2.37
2023-01-03T13:34:36.272Z,1.90
2023-01-03T13:37:17.862Z,2.10
2023-01-03T13:40:12.275Z,2.10
2023-01-03T13:42:40.894Z,1.80
2023-01-03T13:46:02.411Z,2.00
2023-01-03T13:48:54.349Z,1.77
2023-01-03T13:51:50.628Z,1.63
2023-01-03T13:55:08.953Z,1.90
2023-01-03T13:57:40.100Z,1.90
2023-01-03T14:00:26.041Z,2.30
2023-01-03T14:03:33.236Z,1.73
2023-01-03T14:07:10.752Z,2.03
2023-01-03T14:10:11.248Z,2.13
2023-01-03T14:13:18.250Z,1.90
2023-01-03T14:15:46.348Z,2.13
2023-01-03T14:18:20.967Z,2.40
2023-01-03T14:20:51.303Z,1.83
2023-01-03T14:26:15.882Z,1.97
2023-01-03T14:28:48.424Z,2.00
2023-01-03T14:31:19.465Z,1.90
2023-01-03T14:33:52.422Z,2.00
2023-01-03T14:36:20.592Z,2.20
2023-01-03T14:38:51.598Z,2.07
2023-01-03T14:41:31.956Z,2.20
2023-01-03T14:44:02.044Z,2.20
2023-01-03T14:46:30.434Z,2.20
2023-01-03T14:49:03.084Z,2.17
2023-01-03T14:51:32.999Z,2.10
2023-01-03T14:54:02.743Z,2.77
2023-01-03T14:56:30.904Z,2.40
2023-01-03T14:58:59.546Z,2.23
2023-01-03T15:01:28.739Z,2.20
2023-01-03T15:03:57.189Z,1.97
2023-01-03T15:06:27.104Z,1.80
2023-01-03T15:08:56.702Z,2.17
2023-01-03T15:11:30.970Z,1.80
2023-01-03T15:14:02.194Z,1.70
2023-01-03T15:16:33.613Z,1.87
2023-01-03T15:19:07.312Z,1.70
2023-01-03T15:21:35.519Z,1.80
2023-01-03T15:24:03.759Z,1.87
2023-01-03T15:26:40.662Z,2.07
2023-01-03T15:29:14.024Z,1.93
2023-01-03T15:31:51.201Z,2.00
2023-01-03T15:34:21.242Z,2.10
2023-01-03T15:36:53.113Z,2.57
2023-01-03T15:39:22.763Z,2.27
2023-01-03T15:42:44.432Z,2.57
2023-01-03T15:45:02.766Z,4.40
2023-01-03T15:47:31.821Z,3.60
2023-01-03T15:50:01.317Z,3.40
2023-01-03T15:52:29.648Z,2.80
2023-01-03T15:54:57.883Z,2.70
2023-01-03T15:57:30.263Z,4.03
2023-01-03T16:00:00.393Z,3.50
2023-01-03T16:02:29.955Z,3.30
2023-01-03T16:04:58.245Z,3.10
2023-01-03T16:07:26.962Z,3.47
2023-01-03T16:09:55.058Z,3.00
2023-01-03T16:12:31.467Z,2.40
2023-01-03T16:15:00.967Z,2.57
2023-01-03T16:17:29.266Z,3.57
2023-01-03T16:19:57.782Z,2.70
2023-01-03T16:22:35.309Z,3.20
2023-01-03T16:25:04.356Z,2.90
2023-01-03T16:27:32.703Z,3.20
2023-01-03T16:30:02.352Z,2.70
2023-01-03T16:32:30.998Z,2.80
2023-01-03T16:35:01.423Z,2.80
2023-01-03T16:37:29.845Z,2.70
2023-01-03T16:39:58.271Z,2.23
2023-01-03T16:42:28.403Z,2.40
2023-01-03T16:44:57.758Z,2.83
2023-01-03T16:47:31.395Z,2.60
2023-01-03T16:50:01.724Z,2.40
2023-01-03T16:52:35.464Z,2.10
2023-01-03T16:55:05.785Z,2.73
2023-01-03T16:57:33.936Z,2.50
2023-01-03T17:00:02.097Z,3.00
2023-01-03T17:02:31.770Z,2.77
2023-01-03T17:05:00.007Z,2.50
2023-01-03T17:07:28.237Z,2.60
2023-01-03T17:09:56.424Z,2.30
2023-01-03T17:12:25.153Z,2.10
2023-01-03T17:14:53.340Z,2.27
2023-01-03T17:17:22.888Z,2.30
2023-01-03T17:20:08.003Z,2.30
2023-01-03T17:22:36.215Z,2.67
2023-01-03T17:25:04.525Z,2.80
2023-01-03T17:27:33.676Z,2.20
2023-01-03T17:30:03.512Z,2.53
2023-01-03T17:32:31.702Z,2.40
2023-01-03T17:35:03.093Z,2.50
2023-01-03T17:37:45.417Z,2.43
2023-01-03T17:40:27.663Z,3.50
2023-01-03T17:42:59.671Z,3.00
2023-01-03T17:45:45.741Z,2.50
2023-01-03T17:48:31.771Z,2.47
2023-01-03T17:51:02.133Z,2.67
2023-01-03T17:53:30.362Z,2.73
2023-01-03T17:55:58.511Z,2.73
2023-01-03T17:58:32.278Z,2.43
2023-01-03T18:01:00.616Z,3.30
2023-01-03T18:03:30.388Z,6.20
2023-01-03T18:05:58.771Z,4.17
2023-01-03T18:08:28.333Z,2.97
2023-01-03T18:10:56.913Z,5.50
2023-01-03T18:13:27.208Z,4.10
2023-01-03T18:15:55.881Z,3.60
2023-01-03T18:18:25.095Z,3.00
2023-01-03T18:20:53.398Z,3.37
2023-01-03T18:23:26.044Z,3.50
2023-01-03T18:25:55.606Z,2.90
2023-01-03T18:28:26.690Z,3.77
2023-01-03T18:30:55.113Z,3.33
2023-01-03T18:33:23.434Z,3.20
2023-01-03T18:35:52.645Z,3.50
2023-01-03T18:38:26.405Z,3.57
2023-01-03T18:41:02.215Z,3.90
2023-01-03T18:43:32.481Z,3.70
2023-01-03T18:46:00.804Z,3.87
2023-01-03T18:48:29.054Z,3.40
2023-01-03T18:50:59.319Z,3.40
2023-01-03T18:53:31.000Z,3.83
2023-01-03T18:56:00.814Z,3.63
2023-01-03T18:58:33.269Z,4.20
2023-01-03T19:01:01.392Z,4.53
2023-01-03T19:03:31.291Z,3.90
2023-01-03T19:05:59.950Z,4.23
2023-01-03T19:08:31.665Z,3.77
2023-01-03T19:11:05.512Z,4.60
2023-01-03T19:13:49.921Z,5.40
2023-01-03T19:16:20.786Z,3.83
2023-01-03T19:18:49.088Z,4.47
2023-01-03T19:21:17.386Z,6.00
2023-01-03T19:23:46.011Z,5.17
2023-01-03T19:26:26.435Z,4.37
2023-01-03T19:28:56.290Z,6.60
2023-01-03T19:31:25.586Z,10.77
2023-01-03T19:33:53.935Z,8.00
2023-01-03T19:36:22.436Z,5.50
2023-01-03T19:38:50.767Z,3.93
2023-01-03T19:41:21.870Z,3.97
2023-01-03T19:43:50.177Z,4.33
2023-01-03T19:46:18.858Z,3.70
2023-01-03T19:48:47.057Z,3.50
2023-01-03T19:51:15.246Z,3.40
2023-01-03T19:53:43.451Z,3.00
2023-01-03T19:56:22.737Z,3.23
2023-01-03T19:58:50.890Z,3.83
2023-01-03T20:01:20.170Z,3.10
2023-01-03T20:03:49.003Z,3.17
2023-01-03T20:06:19.245Z,2.97
2023-01-03T20:08:48.132Z,2.73
2023-01-03T20:11:18.061Z,3.47
2023-01-03T20:13:48.146Z,3.33
2023-01-03T20:16:16.904Z,3.27
2023-01-03T20:18:45.139Z,3.57
2023-01-03T20:21:22.080Z,3.43
2023-01-03T20:23:52.780Z,3.80
2023-01-03T20:26:23.827Z,3.60
2023-01-03T20:28:54.571Z,3.37
2023-01-03T20:31:22.877Z,3.33
2023-01-03T20:33:52.101Z,3.30
2023-01-03T20:36:23.525Z,3.13
2023-01-03T20:38:54.140Z,3.20
2023-01-03T20:41:35.723Z,2.87
2023-01-03T20:44:07.241Z,2.97
2023-01-03T20:46:35.591Z,3.40
2023-01-03T20:49:03.924Z,3.50
2023-01-03T20:51:32.370Z,3.30
2023-01-03T20:54:00.499Z,2.90
2023-01-03T20:56:29.228Z,3.00
2023-01-03T20:58:58.260Z,3.23
2023-01-03T21:01:27.867Z,3.17
2023-01-03T21:03:56.266Z,3.27
2023-01-03T21:06:26.739Z,3.10
2023-01-03T21:08:54.084Z,3.37
2023-01-03T21:11:23.689Z,3.77
2023-01-03T21:13:51.965Z,3.27
2023-01-03T21:16:36.563Z,3.50
2023-01-03T21:19:11.694Z,3.57
2023-01-03T21:21:40.038Z,3.60
2023-01-03T21:24:08.510Z,3.13
2023-01-03T21:26:36.585Z,3.57
2023-01-03T21:29:05.481Z,3.70
2023-01-03T21:31:34.371Z,3.40
2023-01-03T21:34:05.161Z,3.17
2023-01-03T21:36:34.808Z,2.73
2023-01-03T21:39:03.370Z,3.10
2023-01-03T21:41:32.883Z,2.87
2023-01-03T21:44:01.414Z,2.87
2023-01-03T21:46:29.981Z,2.80
2023-01-03T21:48:58.348Z,2.90
2023-01-03T21:51:37.754Z,2.87
2023-01-03T21:54:07.497Z,2.83
2023-01-03T21:56:37.491Z,3.10
2023-01-03T21:59:05.739Z,2.80
2023-01-03T22:01:53.959Z,2.30
2023-01-03T22:04:21.291Z,2.47
2023-01-03T22:06:50.788Z,2.30
2023-01-03T22:09:36.678Z,2.13
2023-01-03T22:12:05.644Z,2.20
2023-01-03T22:14:33.771Z,2.47
2023-01-03T22:17:01.862Z,2.20
2023-01-03T22:19:30.167Z,2.20
2023-01-03T22:21:59.641Z,2.40
2023-01-03T22:24:27.773Z,2.23
2023-01-03T22:26:56.095Z,2.10
2023-01-03T22:29:24.204Z,1.90
2023-01-03T22:31:52.383Z,2.00
2023-01-03T22:34:20.586Z,1.97
2023-01-03T22:36:48.822Z,1.93
2023-01-03T22:39:18.362Z,1.80
2023-01-03T22:41:46.474Z,2.03
2023-01-03T22:44:14.613Z,2.07
2023-01-03T22:46:42.888Z,2.20
2023-01-03T22:49:11.091Z,2.10
2023-01-03T22:51:39.307Z,2.10
2023-01-03T22:54:07.411Z,2.10
2023-01-03T22:56:36.918Z,2.10
2023-01-03T22:59:05.009Z,1.93
2023-01-03T23:01:33.450Z,2.00
2023-01-03T23:04:03.264Z,2.40
2023-01-03T23:06:32.669Z,2.40
2023-01-03T23:09:01.214Z,2.33
2023-01-03T23:11:48.949Z,2.40
2023-01-03T23:14:19.627Z,2.13
2023-01-03T23:16:48.199Z,2.57
2023-01-03T23:19:17.544Z,2.33
2023-01-03T23:21:46.121Z,2.57
2023-01-03T23:24:14.855Z,2.37
2023-01-03T23:26:43.150Z,2.50
2023-01-03T23:29:11.655Z,2.60
2023-01-03T23:31:41.181Z,2.50
2023-01-03T23:34:10.070Z,2.70
2023-01-03T23:36:38.229Z,2.90
2023-01-03T23:39:06.368Z,2.80
2023-01-03T23:41:34.531Z,2.80
2023-01-03T23:44:02.697Z,3.07
2023-01-03T23:46:30.884Z,2.80
2023-01-03T23:49:00.411Z,2.90
2023-01-03T23:51:28.604Z,2.83
2023-01-03T23:53:56.696Z,2.67
2023-01-03T23:56:25.402Z,2.83
2023-01-03T23:58:53.832Z,2.90
